Terminal Aerodrome Forecast
Issued by NWS

Home | Current Version | Previous Version | Text Only | Print | Product List | Glossary On
Versions: 1 2 3 4 5 6 7 8 9 10 11 12 13 14 15 16 17 18 19
000
FTUS41 KPBZ 011129
TAFHLG
TAF
KHLG 011129Z 0112/0212 00000KT 1/2SM FG VV004
     FM011330 26006KT P6SM SCT040
     FM021000 00000KT 1SM BR SKC=

USA.gov is the U.S. government's official web portal to all federal, state and local government web resources and services.